createdAt,value
2018-11-28T00:00:33.616Z,94.10
2018-11-28T00:03:05.299Z,94.40
2018-11-28T00:05:33.388Z,94.20
2018-11-28T00:08:01.428Z,94.30
2018-11-28T00:10:29.389Z,94.60
2018-11-28T00:12:58.280Z,94.70
2018-11-28T00:15:26.584Z,94.50
2018-11-28T00:17:54.820Z,94.60
2018-11-28T00:20:24.296Z,94.60
2018-11-28T00:22:52.168Z,94.70
2018-11-28T00:25:20.155Z,94.90
2018-11-28T00:27:48.014Z,94.70
2018-11-28T00:30:19.771Z,94.60
2018-11-28T00:32:47.752Z,94.50
2018-11-28T00:35:17.099Z,94.40
2018-11-28T00:37:44.951Z,94.40
2018-11-28T00:40:15.536Z,94.40
2018-11-28T00:42:43.397Z,94.40
2018-11-28T00:45:14.184Z,94.50
2018-11-28T00:47:42.365Z,94.70
2018-11-28T00:50:21.680Z,94.80
2018-11-28T00:52:49.644Z,94.90
2018-11-28T00:55:18.054Z,94.90
2018-11-28T00:57:46.310Z,94.80
2018-11-28T01:00:18.390Z,94.80
2018-11-28T01:02:46.804Z,94.90
2018-11-28T01:05:15.344Z,94.70
2018-11-28T01:07:43.945Z,94.70
2018-11-28T01:10:13.854Z,94.60
2018-11-28T01:12:42.066Z,95.00
2018-11-28T01:15:11.599Z,95.10
2018-11-28T01:17:39.968Z,95.00
2018-11-28T01:20:13.290Z,94.70
2018-11-28T01:22:41.407Z,94.80
2018-11-28T01:25:13.570Z,94.80
2018-11-28T01:27:42.036Z,94.80
2018-11-28T01:30:17.188Z,94.70
2018-11-28T01:32:45.402Z,94.50
2018-11-28T01:35:14.211Z,94.70
2018-11-28T01:37:42.328Z,94.90
2018-11-28T01:40:22.431Z,95.00
2018-11-28T01:42:51.034Z,95.10
2018-11-28T01:45:20.867Z,95.00
2018-11-28T01:47:49.164Z,95.00
2018-11-28T01:50:19.279Z,94.90
2018-11-28T01:52:47.621Z,94.90
2018-11-28T01:55:26.124Z,94.90
2018-11-28T01:57:54.292Z,94.80
2018-11-28T02:00:24.930Z,94.50
2018-11-28T02:02:55.191Z,94.70
2018-11-28T02:05:23.109Z,94.60
2018-11-28T02:07:51.048Z,94.60
2018-11-28T02:10:19.463Z,94.60
2018-11-28T02:12:47.748Z,94.70
2018-11-28T02:15:17.992Z,94.60
2018-11-28T02:17:45.911Z,94.40
2018-11-28T02:20:15.732Z,94.40
2018-11-28T02:22:43.787Z,94.50
2018-11-28T02:25:12.705Z,94.40
2018-11-28T02:27:41.668Z,94.40
2018-11-28T02:30:11.169Z,94.40
2018-11-28T02:32:39.994Z,94.70
2018-11-28T02:35:09.684Z,95.10
2018-11-28T02:37:38.239Z,94.90
2018-11-28T02:40:08.941Z,94.80
2018-11-28T02:42:36.819Z,94.90
2018-11-28T02:45:07.702Z,95.00
2018-11-28T02:47:35.612Z,95.30
2018-11-28T02:50:04.186Z,94.90
2018-11-28T02:52:32.044Z,94.80
2018-11-28T02:55:00.342Z,94.70
2018-11-28T02:57:28.335Z,94.60
2018-11-28T02:59:56.417Z,94.50
2018-11-28T03:02:24.730Z,94.40
2018-11-28T03:04:53.928Z,94.40
2018-11-28T03:07:21.960Z,94.30
2018-11-28T03:09:50.037Z,94.10
2018-11-28T03:12:18.260Z,94.00
2018-11-28T03:14:46.486Z,94.00
2018-11-28T03:17:20.156Z,94.20
2018-11-28T03:19:48.184Z,94.20
2018-11-28T03:22:16.362Z,94.20
2018-11-28T03:24:44.576Z,94.10
2018-11-28T03:27:12.945Z,94.20
2018-11-28T03:29:41.014Z,94.20
2018-11-28T03:32:09.062Z,94.30
2018-11-28T03:34:37.079Z,94.30
2018-11-28T03:37:05.525Z,94.20
2018-11-28T03:39:33.768Z,94.10
2018-11-28T03:44:48.182Z,94.20
2018-11-28T03:47:16.567Z,94.30
2018-11-28T03:49:44.521Z,94.40
2018-11-28T03:52:12.728Z,94.30
2018-11-28T03:54:40.758Z,94.20
2018-11-28T03:57:09.103Z,94.50
2018-11-28T03:59:37.496Z,94.60
2018-11-28T04:02:06.084Z,94.80
2018-11-28T04:04:34.087Z,94.80
2018-11-28T04:07:02.234Z,94.70
2018-11-28T04:09:30.522Z,94.60
2018-11-28T04:11:59.009Z,94.80
2018-11-28T04:14:27.334Z,94.90
2018-11-28T04:16:55.294Z,94.90
2018-11-28T04:19:23.380Z,94.60
2018-11-28T04:21:51.377Z,94.60
2018-11-28T04:24:19.460Z,94.70
2018-11-28T04:26:47.573Z,94.80
2018-11-28T04:29:16.021Z,95.00
2018-11-28T04:31:44.155Z,95.10
2018-11-28T04:34:12.282Z,95.30
2018-11-28T04:36:40.226Z,95.40
2018-11-28T04:39:08.751Z,95.60
2018-11-28T04:41:37.002Z,96.10
2018-11-28T04:44:05.819Z,95.80
2018-11-28T04:46:34.786Z,95.80
2018-11-28T04:49:03.207Z,95.70
2018-11-28T04:51:31.401Z,95.60
2018-11-28T04:53:59.688Z,95.70
2018-11-28T04:56:28.348Z,95.80
2018-11-28T04:58:56.347Z,95.60
2018-11-28T05:01:24.817Z,95.90
2018-11-28T05:03:53.198Z,96.00
2018-11-28T05:06:33.013Z,96.10
2018-11-28T05:09:01.115Z,96.20
2018-11-28T05:11:29.035Z,96.10
2018-11-28T05:13:57.085Z,96.00
2018-11-28T05:16:24.831Z,95.80
2018-11-28T05:18:52.756Z,95.60
2018-11-28T05:21:20.663Z,95.40
2018-11-28T05:23:48.646Z,95.50
2018-11-28T05:26:17.233Z,95.50
2018-11-28T05:28:44.987Z,95.70
2018-11-28T05:31:12.767Z,95.70
2018-11-28T05:33:40.613Z,95.70
2018-11-28T05:36:08.474Z,95.90
2018-11-28T05:38:36.304Z,95.80
2018-11-28T05:41:04.739Z,95.70
2018-11-28T05:43:32.520Z,95.70
2018-11-28T05:46:00.403Z,95.70
2018-11-28T05:48:28.156Z,95.40
2018-11-28T05:50:56.276Z,95.10
2018-11-28T05:53:24.099Z,95.30
2018-11-28T05:55:52.084Z,95.30
2018-11-28T05:58:19.992Z,95.50
2018-11-28T06:00:47.765Z,95.40
2018-11-28T06:03:15.596Z,95.60
2018-11-28T06:05:43.773Z,95.50
2018-11-28T06:08:11.685Z,95.60
2018-11-28T06:10:39.465Z,95.30
2018-11-28T06:13:07.396Z,95.50
2018-11-28T06:15:35.325Z,95.30
2018-11-28T06:18:03.242Z,95.30
2018-11-28T06:20:31.171Z,95.40
2018-11-28T06:22:59.120Z,95.40
2018-11-28T06:25:26.900Z,95.90
2018-11-28T06:27:54.717Z,95.70
2018-11-28T06:30:22.457Z,95.60
2018-11-28T06:32:51.507Z,95.20
2018-11-28T06:35:17.887Z,95.10
2018-11-28T06:37:45.794Z,95.10
2018-11-28T06:40:14.407Z,95.20
2018-11-28T06:42:43.327Z,95.50
2018-11-28T06:45:13.927Z,95.50
2018-11-28T06:47:41.797Z,95.90
2018-11-28T06:50:13.640Z,95.90
2018-11-28T06:52:41.884Z,96.00
2018-11-28T06:55:13.203Z,96.20
2018-11-28T06:57:41.084Z,95.70
2018-11-28T07:00:11.912Z,96.00
2018-11-28T07:02:40.735Z,96.40
2018-11-28T07:05:08.632Z,96.20
2018-11-28T07:07:36.371Z,96.50
2018-11-28T07:10:05.422Z,96.50
2018-11-28T07:12:33.213Z,96.40
2018-11-28T07:15:00.991Z,96.60
2018-11-28T07:17:28.799Z,96.80
2018-11-28T07:19:56.603Z,96.90
2018-11-28T07:22:24.399Z,96.90
2018-11-28T07:24:52.266Z,97.00
2018-11-28T07:27:20.042Z,97.20
2018-11-28T07:29:47.756Z,96.90
2018-11-28T07:32:15.610Z,96.90
2018-11-28T07:34:43.328Z,96.90
2018-11-28T07:37:11.220Z,97.00
2018-11-28T07:39:39.001Z,97.00
2018-11-28T07:42:06.902Z,97.20
2018-11-28T07:44:34.714Z,97.10
2018-11-28T07:47:02.711Z,97.00
2018-11-28T07:49:30.513Z,96.50
2018-11-28T07:51:58.228Z,96.50
2018-11-28T07:54:26.119Z,96.40
2018-11-28T07:56:53.809Z,96.60
2018-11-28T07:59:21.531Z,96.80
2018-11-28T08:01:49.349Z,96.70
2018-11-28T08:04:17.262Z,96.70
2018-11-28T08:06:45.158Z,96.60
2018-11-28T08:09:12.888Z,96.40
2018-11-28T08:11:40.710Z,96.50
2018-11-28T08:14:08.670Z,96.40
2018-11-28T08:16:36.597Z,96.70
2018-11-28T08:19:04.548Z,96.60
2018-11-28T08:21:32.381Z,96.50
2018-11-28T08:24:00.283Z,96.10
2018-11-28T08:26:28.032Z,95.80
2018-11-28T08:28:55.856Z,96.10
2018-11-28T08:31:23.727Z,95.80
2018-11-28T08:33:51.513Z,95.80
2018-11-28T08:36:19.326Z,95.50
2018-11-28T08:38:47.157Z,95.10
2018-11-28T08:41:14.896Z,95.20
2018-11-28T08:43:42.682Z,95.20
2018-11-28T08:46:10.536Z,95.40
2018-11-28T08:48:38.236Z,95.90
2018-11-28T08:51:06.125Z,95.80
2018-11-28T08:53:34.543Z,97.90
2018-11-28T08:56:02.242Z,98.30
2018-11-28T08:58:29.938Z,96.30
2018-11-28T09:00:58.015Z,95.30
2018-11-28T09:03:25.664Z,95.00
2018-11-28T09:05:53.335Z,95.10
2018-11-28T09:08:21.059Z,94.90
2018-11-28T09:10:48.826Z,95.10
2018-11-28T09:13:16.597Z,95.00
2018-11-28T09:15:44.290Z,95.10
2018-11-28T09:18:12.228Z,94.50
2018-11-28T09:20:39.937Z,94.90
2018-11-28T09:23:07.770Z,95.40
2018-11-28T09:25:35.487Z,95.10
2018-11-28T09:28:03.130Z,95.50
2018-11-28T09:30:30.886Z,95.50
2018-11-28T09:32:58.635Z,95.30
2018-11-28T09:35:26.495Z,94.60
2018-11-28T09:37:54.317Z,94.90
2018-11-28T09:40:25.129Z,94.60
2018-11-28T09:42:55.049Z,95.00
2018-11-28T09:45:22.948Z,94.80
2018-11-28T09:47:50.953Z,94.40
2018-11-28T09:50:19.831Z,94.60
2018-11-28T09:52:47.627Z,94.30
2018-11-28T09:55:17.523Z,95.90
2018-11-28T09:57:45.286Z,94.50
2018-11-28T10:00:17.110Z,94.10
2018-11-28T10:02:44.888Z,93.80
2018-11-28T10:05:15.786Z,93.40
2018-11-28T10:07:43.703Z,93.20
2018-11-28T10:10:12.147Z,93.10
2018-11-28T10:12:41.967Z,93.10
2018-11-28T10:15:15.873Z,93.00
2018-11-28T10:17:43.792Z,93.20
2018-11-28T10:20:12.867Z,93.20
2018-11-28T10:22:41.404Z,93.60
2018-11-28T10:25:10.824Z,92.90
2018-11-28T10:27:38.716Z,93.00
2018-11-28T10:30:13.943Z,92.40
2018-11-28T10:32:41.817Z,92.50
2018-11-28T10:35:09.691Z,92.10
2018-11-28T10:37:37.360Z,92.40
2018-11-28T10:40:08.964Z,92.20
2018-11-28T10:42:36.749Z,91.60
2018-11-28T10:45:05.953Z,90.60
2018-11-28T10:47:33.596Z,90.70
2018-11-28T10:50:01.348Z,90.40
2018-11-28T10:52:29.055Z,90.30
2018-11-28T10:54:56.802Z,90.70
2018-11-28T10:57:24.670Z,90.00
2018-11-28T10:59:52.454Z,89.10
2018-11-28T11:02:25.798Z,88.80
2018-11-28T11:04:59.066Z,89.30
2018-11-28T11:07:32.453Z,89.40
2018-11-28T11:10:05.755Z,89.50
2018-11-28T11:12:39.226Z,89.50
2018-11-28T11:15:07.002Z,89.50
2018-11-28T11:17:34.632Z,89.70
2018-11-28T11:20:02.424Z,90.20
2018-11-28T11:22:30.108Z,90.00
2018-11-28T11:24:57.712Z,89.80
2018-11-28T11:27:25.587Z,89.40
2018-11-28T11:29:54.000Z,89.80
2018-11-28T11:32:21.907Z,89.70
2018-11-28T11:34:49.604Z,89.50
2018-11-28T11:37:17.380Z,89.40
2018-11-28T11:39:45.458Z,89.70
2018-11-28T11:42:13.212Z,88.60
2018-11-28T11:44:41.141Z,88.00
2018-11-28T11:47:09.060Z,87.60
2018-11-28T11:49:36.821Z,88.00
2018-11-28T11:52:04.589Z,88.70
2018-11-28T11:54:32.266Z,87.90
2018-11-28T11:57:00.057Z,87.50
2018-11-28T11:59:27.824Z,87.30
2018-11-28T12:01:55.651Z,87.90
2018-11-28T12:04:23.426Z,87.60
2018-11-28T12:06:51.320Z,87.40
2018-11-28T12:09:19.096Z,87.40
2018-11-28T12:11:46.823Z,85.80
2018-11-28T12:14:14.563Z,86.60
2018-11-28T12:16:42.342Z,86.70
2018-11-28T12:19:10.024Z,86.50
2018-11-28T12:21:37.761Z,86.20
2018-11-28T12:24:05.552Z,86.60
2018-11-28T12:26:33.475Z,85.80
2018-11-28T12:29:01.267Z,86.10
2018-11-28T12:31:29.202Z,85.50
2018-11-28T12:33:56.909Z,86.40
2018-11-28T12:36:24.623Z,86.20
2018-11-28T12:38:52.317Z,87.20
2018-11-28T12:41:20.045Z,85.80
2018-11-28T12:43:47.743Z,85.40
2018-11-28T12:46:15.379Z,85.40
2018-11-28T12:48:43.091Z,85.70
2018-11-28T12:51:10.791Z,84.90
2018-11-28T12:53:38.588Z,84.30
2018-11-28T12:56:06.338Z,84.50
2018-11-28T12:58:34.140Z,83.50
2018-11-28T13:01:01.932Z,84.10
2018-11-28T13:03:29.675Z,84.10
2018-11-28T13:05:57.452Z,84.30
2018-11-28T13:08:25.175Z,84.10
2018-11-28T13:10:53.023Z,84.60
2018-11-28T13:13:20.694Z,83.80
2018-11-28T13:15:48.394Z,83.20
2018-11-28T13:18:16.121Z,82.80
2018-11-28T13:20:43.852Z,82.80
2018-11-28T13:23:13.760Z,82.90
2018-11-28T13:25:41.631Z,83.40
2018-11-28T13:28:09.566Z,83.70
2018-11-28T13:30:37.597Z,83.10
2018-11-28T13:33:05.443Z,83.30
2018-11-28T13:35:33.167Z,83.20
2018-11-28T13:38:07.071Z,82.90
2018-11-28T13:40:34.820Z,82.60
2018-11-28T13:43:02.651Z,83.40
2018-11-28T13:45:32.583Z,83.20
2018-11-28T13:48:00.387Z,82.90
2018-11-28T13:50:28.261Z,83.00
2018-11-28T13:52:56.980Z,83.10
2018-11-28T13:55:42.026Z,82.60
2018-11-28T13:58:01.106Z,82.50
2018-11-28T14:00:28.772Z,82.20
2018-11-28T14:02:56.478Z,82.60
2018-11-28T14:05:24.150Z,82.70
2018-11-28T14:07:51.821Z,83.20
2018-11-28T14:10:19.487Z,82.90
2018-11-28T14:12:48.123Z,83.40
2018-11-28T14:15:18.094Z,83.00
2018-11-28T14:18:18.261Z,83.20
2018-11-28T14:20:45.950Z,82.90
2018-11-28T14:23:13.590Z,82.80
2018-11-28T14:25:41.265Z,82.60
2018-11-28T14:28:09.566Z,82.90
2018-11-28T14:30:39.334Z,83.50
2018-11-28T14:33:07.128Z,83.80
2018-11-28T14:35:34.930Z,84.40
2018-11-28T14:38:03.073Z,84.70
2018-11-28T14:40:37.037Z,85.00
2018-11-28T14:43:05.548Z,85.00
2018-11-28T14:45:33.384Z,85.30
2018-11-28T14:50:40.482Z,85.90
2018-11-28T14:53:12.432Z,85.90
2018-11-28T14:55:42.353Z,85.90
2018-11-28T14:58:16.585Z,86.00
2018-11-28T15:00:46.483Z,86.10
2018-11-28T15:03:24.696Z,86.20
2018-11-28T15:07:03.261Z,86.50
2018-11-28T15:09:38.312Z,86.70
2018-11-28T15:15:06.406Z,86.60
2018-11-28T15:17:42.524Z,87.00
2018-11-28T15:20:11.305Z,87.50
2018-11-28T15:22:42.320Z,87.80
2018-11-28T15:25:12.063Z,87.90
2018-11-28T15:27:39.958Z,88.00
2018-11-28T15:30:09.479Z,88.10
2018-11-28T15:32:39.023Z,88.20
2018-11-28T15:35:14.499Z,88.40
2018-11-28T15:37:43.432Z,88.60
2018-11-28T15:40:19.717Z,88.80
2018-11-28T15:48:12.215Z,89.10
2018-11-28T15:50:42.331Z,89.30
2018-11-28T15:53:11.427Z,89.50
2018-11-28T15:55:47.333Z,89.40
2018-11-28T16:01:13.845Z,89.90
2018-11-28T16:06:40.121Z,90.10
2018-11-28T16:09:14.539Z,90.10
2018-11-28T16:11:44.828Z,90.30
2018-11-28T16:14:24.690Z,90.40
2018-11-28T16:16:53.160Z,90.40
2018-11-28T16:22:14.911Z,90.50
2018-11-28T16:24:49.426Z,90.60
2018-11-28T16:27:17.581Z,90.60
2018-11-28T16:29:53.416Z,90.70
2018-11-28T16:35:08.119Z,90.70
2018-11-28T16:37:44.644Z,90.70
2018-11-28T16:45:59.484Z,90.60
2018-11-28T16:48:41.198Z,90.60
2018-11-28T16:51:22.864Z,90.70
2018-11-28T16:59:30.747Z,91.00
2018-11-28T17:07:20.140Z,90.90
2018-11-28T17:10:01.028Z,90.90
2018-11-28T17:18:03.536Z,91.10
2018-11-28T17:20:49.030Z,91.00
2018-11-28T17:26:16.240Z,91.00
2018-11-28T17:34:36.216Z,91.50
2018-11-28T17:42:37.961Z,91.60
2018-11-28T17:50:20.201Z,91.70
2018-11-28T17:53:03.348Z,91.60
2018-11-28T17:55:36.369Z,91.50
2018-11-28T17:58:05.457Z,91.40
2018-11-28T18:00:34.152Z,91.60
2018-11-28T18:03:02.206Z,91.70
2018-11-28T18:05:32.448Z,91.80
2018-11-28T18:08:00.177Z,91.90
2018-11-28T18:10:29.400Z,91.90
2018-11-28T18:13:09.796Z,92.10
2018-11-28T18:15:41.199Z,92.10
2018-11-28T18:18:12.487Z,92.00
2018-11-28T18:20:40.486Z,92.10
2018-11-28T18:23:09.871Z,92.10
2018-11-28T18:25:39.445Z,92.20
2018-11-28T18:28:08.774Z,92.20
2018-11-28T18:30:37.287Z,92.20
2018-11-28T18:33:05.751Z,92.20
2018-11-28T18:35:33.558Z,92.00
2018-11-28T18:38:01.333Z,92.00
2018-11-28T18:40:29.349Z,91.90
2018-11-28T18:43:05.643Z,91.80
2018-11-28T18:45:36.366Z,92.00
2018-11-28T18:48:03.219Z,92.10
2018-11-28T18:50:31.779Z,92.00
2018-11-28T18:52:59.919Z,92.00
2018-11-28T18:55:28.149Z,92.00
2018-11-28T18:57:56.853Z,91.90
2018-11-28T19:00:26.318Z,92.00
2018-11-28T19:02:56.304Z,92.20
2018-11-28T19:05:25.815Z,92.10
2018-11-28T19:07:58.540Z,92.20
2018-11-28T19:10:27.129Z,92.30
2018-11-28T19:12:55.128Z,92.40
2018-11-28T19:15:29.384Z,92.60
2018-11-28T19:17:58.922Z,92.60
2018-11-28T19:20:27.556Z,92.70
2018-11-28T19:22:57.239Z,92.70
2018-11-28T19:25:27.788Z,92.70
2018-11-28T19:27:59.330Z,92.60
2018-11-28T19:30:32.158Z,92.50
2018-11-28T19:33:00.234Z,92.40
2018-11-28T19:35:28.433Z,92.10
2018-11-28T19:37:56.752Z,92.00
2018-11-28T19:40:32.204Z,91.90
2018-11-28T19:43:00.857Z,91.90
2018-11-28T19:45:28.851Z,91.90
2018-11-28T19:47:56.960Z,91.80
2018-11-28T19:50:29.626Z,91.90
2018-11-28T19:52:57.547Z,92.00
2018-11-28T19:55:25.371Z,91.80
2018-11-28T19:57:53.663Z,91.50
2018-11-28T20:00:21.832Z,91.60
2018-11-28T20:02:49.996Z,91.70
2018-11-28T20:05:17.980Z,91.80
2018-11-28T20:07:47.960Z,91.70
2018-11-28T20:10:17.416Z,91.70
2018-11-28T20:12:46.500Z,91.80
2018-11-28T20:15:20.514Z,91.90
2018-11-28T20:17:49.132Z,92.10
2018-11-28T20:20:17.162Z,92.30
2018-11-28T20:22:45.678Z,92.40
2018-11-28T20:25:15.872Z,92.50
2018-11-28T20:27:45.264Z,92.40
2018-11-28T20:30:20.722Z,92.50
2018-11-28T20:32:48.667Z,92.60
2018-11-28T20:35:16.478Z,92.60
2018-11-28T20:37:44.857Z,92.80
2018-11-28T20:40:15.253Z,92.80
2018-11-28T20:42:44.872Z,92.90
2018-11-28T20:45:13.372Z,92.90
2018-11-28T20:47:42.059Z,92.90
2018-11-28T20:50:14.687Z,93.10
2018-11-28T20:52:45.867Z,93.20
2018-11-28T20:55:13.681Z,93.20
2018-11-28T20:57:41.503Z,93.30
2018-11-28T21:00:11.996Z,92.90
2018-11-28T21:02:39.757Z,93.00
2018-11-28T21:05:08.395Z,93.20
2018-11-28T21:07:36.936Z,93.20
2018-11-28T21:10:13.423Z,93.30
2018-11-28T21:12:41.803Z,93.40
2018-11-28T21:15:10.548Z,93.20
2018-11-28T21:17:40.576Z,92.90
2018-11-28T21:20:16.151Z,93.00
2018-11-28T21:22:47.463Z,92.80
2018-11-28T21:25:16.274Z,92.90
2018-11-28T21:27:47.441Z,92.70
2018-11-28T21:30:17.858Z,92.70
2018-11-28T21:32:46.818Z,92.80
2018-11-28T21:35:17.263Z,92.70
2018-11-28T21:37:46.502Z,92.80
2018-11-28T21:40:15.460Z,93.00
2018-11-28T21:42:43.508Z,93.10
2018-11-28T21:45:15.423Z,93.10
2018-11-28T21:47:44.606Z,92.80
2018-11-28T21:50:20.529Z,93.00
2018-11-28T21:52:50.364Z,92.90
2018-11-28T21:55:21.286Z,93.10
2018-11-28T21:57:49.296Z,93.10
2018-11-28T22:00:26.531Z,93.30
2018-11-28T22:02:56.325Z,93.40
2018-11-28T22:05:30.090Z,93.40
2018-11-28T22:07:59.967Z,93.20
2018-11-28T22:10:29.712Z,93.10
2018-11-28T22:13:01.315Z,93.10
2018-11-28T22:15:33.836Z,93.20
2018-11-28T22:18:03.087Z,93.20
2018-11-28T22:20:30.991Z,93.00
2018-11-28T22:23:00.659Z,93.10
2018-11-28T22:25:33.485Z,93.30
2018-11-28T22:28:05.729Z,93.20
2018-11-28T22:30:39.879Z,93.00
2018-11-28T22:33:10.492Z,93.10
2018-11-28T22:35:39.824Z,93.40
2018-11-28T22:38:07.587Z,93.50
2018-11-28T22:40:35.415Z,93.30
2018-11-28T22:43:03.879Z,93.10
2018-11-28T22:45:33.831Z,92.90
2018-11-28T22:48:02.315Z,92.90
2018-11-28T22:50:30.825Z,92.80
2018-11-28T22:52:59.506Z,92.70
2018-11-28T22:55:28.158Z,92.80
2018-11-28T22:57:57.116Z,92.80
2018-11-28T23:00:32.452Z,92.80
2018-11-28T23:03:08.204Z,92.80
2018-11-28T23:05:46.875Z,92.90
2018-11-28T23:08:17.516Z,92.90
2018-11-28T23:10:46.271Z,92.90
2018-11-28T23:13:16.422Z,92.80
2018-11-28T23:15:45.237Z,92.90
2018-11-28T23:18:14.176Z,92.90
2018-11-28T23:20:42.783Z,93.00
2018-11-28T23:23:11.782Z,93.00
2018-11-28T23:25:40.310Z,92.90
2018-11-28T23:28:08.337Z,92.90
2018-11-28T23:30:37.687Z,93.10
2018-11-28T23:33:08.331Z,93.20
2018-11-28T23:35:35.876Z,93.60
2018-11-28T23:38:04.370Z,93.60
2018-11-28T23:40:32.413Z,93.70
2018-11-28T23:43:00.171Z,93.60
2018-11-28T23:45:28.227Z,93.50
2018-11-28T23:47:56.443Z,93.50
2018-11-28T23:50:26.272Z,93.90
2018-11-28T23:52:56.411Z,93.40
2018-11-28T23:55:27.552Z,93.20
2018-11-28T23:57:55.782Z,93.00
